sensor_id;sensor_type;location;lat;lon;timestamp;pressure;altitude;pressure_sealevel;temperature;humidity
66880;BME280;53789;51.392;10.234;2023-05-02T00:00:14;98236.91;;;9.23;71.18
66880;BME280;53789;51.392;10.234;2023-05-02T00:00:35;98241.56;;;9.23;71.83
66880;BME280;53789;51.392;10.234;2023-05-02T00:00:55;98242.41;;;9.23;71.90
66880;BME280;53789;51.392;10.234;2023-05-02T00:01:16;98242.41;;;9.23;71.36
66880;BME280;53789;51.392;10.234;2023-05-02T00:01:36;98239.66;;;9.23;72.05
66880;BME280;53789;51.392;10.234;2023-05-02T00:01:57;98236.91;;;9.23;71.59
66880;BME280;53789;51.392;10.234;2023-05-02T00:02:17;98241.25;;;9.24;71.87
66880;BME280;53789;51.392;10.234;2023-05-02T00:02:37;98236.31;;;9.26;71.93
66880;BME280;53789;51.392;10.234;2023-05-02T00:02:59;98242.59;;;9.27;71.15
66880;BME280;53789;51.392;10.234;2023-05-02T00:03:20;98245.03;;;9.28;70.53
66880;BME280;53789;51.392;10.234;2023-05-02T00:03:40;98240.38;;;9.29;71.12
66880;BME280;53789;51.392;10.234;2023-05-02T00:04:01;98232.97;;;9.29;70.80
66880;BME280;53789;51.392;10.234;2023-05-02T00:04:21;98233.78;;;9.30;71.56
66880;BME280;53789;51.392;10.234;2023-05-02T00:04:42;98234.59;;;9.30;71.20
66880;BME280;53789;51.392;10.234;2023-05-02T00:05:02;98236.22;;;9.31;71.83
66880;BME280;53789;51.392;10.234;2023-05-02T00:05:23;98234.59;;;9.30;71.32
66880;BME280;53789;51.392;10.234;2023-05-02T00:05:43;98236.22;;;9.31;71.33
66880;BME280;53789;51.392;10.234;2023-05-02T00:06:04;98238.66;;;9.33;71.05
66880;BME280;53789;51.392;10.234;2023-05-02T00:06:24;98236.78;;;9.33;71.35
66880;BME280;53789;51.392;10.234;2023-05-02T00:06:44;98237.84;;;9.32;71.54
66880;BME280;53789;51.392;10.234;2023-05-02T00:07:05;98239.78;;;9.32;71.62
66880;BME280;53789;51.392;10.234;2023-05-02T00:07:25;98237.06;;;9.32;70.67
66880;BME280;53789;51.392;10.234;2023-05-02T00:07:45;98231.84;;;9.30;71.24
66880;BME280;53789;51.392;10.234;2023-05-02T00:08:06;98235.41;;;9.31;71.43
66880;BME280;53789;51.392;10.234;2023-05-02T00:08:26;98230.22;;;9.29;71.51
66880;BME280;53789;51.392;10.234;2023-05-02T00:08:48;98232.66;;;9.31;70.88
66880;BME280;53789;51.392;10.234;2023-05-02T00:09:08;98231.03;;;9.30;71.57
66880;BME280;53789;51.392;10.234;2023-05-02T00:09:29;98232.97;;;9.29;71.45
66880;BME280;53789;51.392;10.234;2023-05-02T00:09:49;98231.56;;;9.32;71.76
66880;BME280;53789;51.392;10.234;2023-05-02T00:10:10;98236.22;;;9.31;71.51
66880;BME280;53789;51.392;10.234;2023-05-02T00:10:30;98235.09;;;9.32;70.95
66880;BME280;53789;51.392;10.234;2023-05-02T00:10:50;98230.72;;;9.31;71.96
66880;BME280;53789;51.392;10.234;2023-05-02T00:11:11;98238.97;;;9.31;72.07
66880;BME280;53789;51.392;10.234;2023-05-02T00:11:31;98236.78;;;9.33;70.87
66880;BME280;53789;51.392;10.234;2023-05-02T00:11:51;98232.38;;;9.32;71.92
66880;BME280;53789;51.392;10.234;2023-05-02T00:12:11;98233.16;;;9.33;70.95
66880;BME280;53789;51.392;10.234;2023-05-02T00:12:32;98239.22;;;9.35;71.04
66880;BME280;53789;51.392;10.234;2023-05-02T00:12:52;98234.53;;;9.35;71.84
66880;BME280;53789;51.392;10.234;2023-05-02T00:13:12;98234.53;;;9.35;71.06
66880;BME280;53789;51.392;10.234;2023-05-02T00:13:32;98240.03;;;9.35;71.33
66880;BME280;53789;51.392;10.234;2023-05-02T00:13:53;98247.16;;;9.36;71.19
66880;BME280;53789;51.392;10.234;2023-05-02T00:14:13;98238.38;;;9.34;71.63
66880;BME280;53789;51.392;10.234;2023-05-02T00:14:33;98242.78;;;9.35;71.66
66880;BME280;53789;51.392;10.234;2023-05-02T00:14:54;98243.59;;;9.36;70.59
66880;BME280;53789;51.392;10.234;2023-05-02T00:15:14;98238.38;;;9.34;71.31
66880;BME280;53789;51.392;10.234;2023-05-02T00:15:34;98247.75;;;9.33;71.73
66880;BME280;53789;51.392;10.234;2023-05-02T00:15:55;98239.78;;;9.32;71.29
66880;BME280;53789;51.392;10.234;2023-05-02T00:16:15;98235.41;;;9.31;70.71
66880;BME280;53789;51.392;10.234;2023-05-02T00:16:35;98235.72;;;9.29;71.47
66880;BME280;53789;51.392;10.234;2023-05-02T00:16:56;98239.56;;;9.28;71.02
66880;BME280;53789;51.392;10.234;2023-05-02T00:17:17;98234.38;;;9.27;71.37
66880;BME280;53789;51.392;10.234;2023-05-02T00:17:39;98235.78;;;9.24;72.19
66880;BME280;53789;51.392;10.234;2023-05-02T00:18:00;98230.59;;;9.23;71.12
66880;BME280;53789;51.392;10.234;2023-05-02T00:18:20;98239.94;;;9.22;72.24
66880;BME280;53789;51.392;10.234;2023-05-02T00:18:40;98228.97;;;9.22;72.02
66880;BME280;53789;51.392;10.234;2023-05-02T00:19:01;98239.13;;;9.21;71.57
66880;BME280;53789;51.392;10.234;2023-05-02T00:19:21;98232.03;;;9.20;71.45
66880;BME280;53789;51.392;10.234;2023-05-02T00:19:41;98234.22;;;9.18;71.59
66880;BME280;53789;51.392;10.234;2023-05-02T00:20:02;98240.81;;;9.17;71.63
66880;BME280;53789;51.392;10.234;2023-05-02T00:20:23;98232.06;;;9.15;72.63
66880;BME280;53789;51.392;10.234;2023-05-02T00:20:43;98236.75;;;9.14;71.65
66880;BME280;53789;51.392;10.234;2023-05-02T00:21:03;98242.53;;;9.13;71.81
66880;BME280;53789;51.392;10.234;2023-05-02T00:21:23;98240.91;;;9.12;72.07
66880;BME280;53789;51.392;10.234;2023-05-02T00:21:46;98243.13;;;9.10;72.48
66880;BME280;53789;51.392;10.234;2023-05-02T00:22:07;98231.63;;;9.08;72.41
66880;BME280;53789;51.392;10.234;2023-05-02T00:22:27;98235.50;;;9.07;72.63
66880;BME280;53789;51.392;10.234;2023-05-02T00:22:47;98244.84;;;9.06;72.66
66880;BME280;53789;51.392;10.234;2023-05-02T00:23:08;98238.81;;;9.03;72.67
66880;BME280;53789;51.392;10.234;2023-05-02T00:23:28;98241.84;;;9.02;72.94
66880;BME280;53789;51.392;10.234;2023-05-02T00:23:50;98239.41;;;9.00;73.30
66880;BME280;53789;51.392;10.234;2023-05-02T00:24:10;98240.25;;;9.01;72.89
66880;BME280;53789;51.392;10.234;2023-05-02T00:24:30;98239.41;;;9.00;73.02
66880;BME280;53789;51.392;10.234;2023-05-02T00:24:57;98235.06;;;8.99;73.68
66880;BME280;53789;51.392;10.234;2023-05-02T00:25:18;98234.53;;;8.97;74.26
66880;BME280;53789;51.392;10.234;2023-05-02T00:25:43;98238.41;;;8.96;74.13
66880;BME280;53789;51.392;10.234;2023-05-02T00:26:08;98236.75;;;8.95;73.44
66880;BME280;53789;51.392;10.234;2023-05-02T00:26:28;98239.50;;;8.95;73.42
66880;BME280;53789;51.392;10.234;2023-05-02T00:26:49;98241.69;;;8.93;74.37
66880;BME280;53789;51.392;10.234;2023-05-02T00:27:09;98244.44;;;8.93;74.26
66880;BME280;53789;51.392;10.234;2023-05-02T00:27:30;98232.66;;;8.93;74.38
66880;BME280;53789;51.392;10.234;2023-05-02T00:27:50;98238.16;;;8.93;73.39
66880;BME280;53789;51.392;10.234;2023-05-02T00:28:10;98235.41;;;8.93;74.22
66880;BME280;53789;51.392;10.234;2023-05-02T00:28:31;98238.44;;;8.91;74.07
66880;BME280;53789;51.392;10.234;2023-05-02T00:28:51;98235.72;;;8.91;74.47
66880;BME280;53789;51.392;10.234;2023-05-02T00:29:11;98231.31;;;8.90;73.41
66880;BME280;53789;51.392;10.234;2023-05-02T00:29:31;98239.56;;;8.90;74.50
66880;BME280;53789;51.392;10.234;2023-05-02T00:29:53;98238.75;;;8.90;74.20
66880;BME280;53789;51.392;10.234;2023-05-02T00:30:13;98241.50;;;8.90;73.67
66880;BME280;53789;51.392;10.234;2023-05-02T00:30:33;98232.47;;;8.89;74.90
66880;BME280;53789;51.392;10.234;2023-05-02T00:30:54;98237.94;;;8.89;74.14
66880;BME280;53789;51.392;10.234;2023-05-02T00:31:14;98236.81;;;8.90;74.42
66880;BME280;53789;51.392;10.234;2023-05-02T00:31:34;98232.47;;;8.89;73.81
66880;BME280;53789;51.392;10.234;2023-05-02T00:31:55;98237.94;;;8.89;74.81
66880;BME280;53789;51.392;10.234;2023-05-02T00:32:16;98233.56;;;8.88;74.36
66880;BME280;53789;51.392;10.234;2023-05-02T00:32:36;98242.59;;;8.89;74.24
66880;BME280;53789;51.392;10.234;2023-05-02T00:32:56;98239.03;;;8.88;74.84
66880;BME280;53789;51.392;10.234;2023-05-02T00:33:17;98246.16;;;8.89;73.73
66880;BME280;53789;51.392;10.234;2023-05-02T00:33:37;98239.84;;;8.89;74.62
66880;BME280;53789;51.392;10.234;2023-05-02T00:33:57;98243.13;;;8.91;73.76
66880;BME280;53789;51.392;10.234;2023-05-02T00:34:17;98240.38;;;8.91;74.08
66880;BME280;53789;51.392;10.234;2023-05-02T00:34:38;98239.25;;;8.92;74.42
66880;BME280;53789;51.392;10.234;2023-05-02T00:34:58;98237.06;;;8.94;73.52
66880;BME280;53789;51.392;10.234;2023-05-02T00:35:18;98238.97;;;8.93;74.11
66880;BME280;53789;51.392;10.234;2023-05-02T00:35:39;98237.84;;;8.94;73.91
66880;BME280;53789;51.392;10.234;2023-05-02T00:35:59;98236.75;;;8.95;74.37
66880;BME280;53789;51.392;10.234;2023-05-02T00:36:19;98236.75;;;8.95;74.50
66880;BME280;53789;51.392;10.234;2023-05-02T00:36:40;98235.94;;;8.95;73.75
66880;BME280;53789;51.392;10.234;2023-05-02T00:37:00;98234.81;;;8.96;73.53
66880;BME280;53789;51.392;10.234;2023-05-02T00:37:20;98240.84;;;8.98;74.76
66880;BME280;53789;51.392;10.234;2023-05-02T00:37:44;98240.00;;;8.97;74.41
66880;BME280;53789;51.392;10.234;2023-05-02T00:38:05;98228.22;;;8.97;74.02
66880;BME280;53789;51.392;10.234;2023-05-02T00:38:25;98234.53;;;8.97;73.25
66880;BME280;53789;51.392;10.234;2023-05-02T00:38:45;98242.44;;;8.99;73.29
66880;BME280;53789;51.392;10.234;2023-05-02T00:39:06;98234.22;;;8.99;74.22
66880;BME280;53789;51.392;10.234;2023-05-02T00:39:26;98240.25;;;9.01;73.60
66880;BME280;53789;51.392;10.234;2023-05-02T00:39:46;98244.59;;;9.02;73.41
66880;BME280;53789;51.392;10.234;2023-05-02T00:40:07;98248.19;;;9.02;73.28
66880;BME280;53789;51.392;10.234;2023-05-02T00:40:27;98247.03;;;9.03;73.48
66880;BME280;53789;51.392;10.234;2023-05-02T00:40:49;98247.59;;;9.06;73.51
66880;BME280;53789;51.392;10.234;2023-05-02T00:41:09;98248.69;;;9.05;73.70
66880;BME280;53789;51.392;10.234;2023-05-02T00:41:30;98241.25;;;9.05;73.67
66880;BME280;53789;51.392;10.234;2023-05-02T00:41:59;98251.13;;;9.06;73.19
66880;BME280;53789;51.392;10.234;2023-05-02T00:42:20;98245.94;;;9.05;73.94
66880;BME280;53789;51.392;10.234;2023-05-02T00:42:40;98242.09;;;9.06;73.91
66880;BME280;53789;51.392;10.234;2023-05-02T00:43:00;98245.34;;;9.08;73.59
66880;BME280;53789;51.392;10.234;2023-05-02T00:43:21;98242.91;;;9.06;73.53
66880;BME280;53789;51.392;10.234;2023-05-02T00:43:41;98245.66;;;9.06;73.91
66880;BME280;53789;51.392;10.234;2023-05-02T00:44:01;98252.78;;;9.07;74.20
66880;BME280;53789;51.392;10.234;2023-05-02T00:44:22;98253.88;;;9.06;73.60
66880;BME280;53789;51.392;10.234;2023-05-02T00:44:42;98251.13;;;9.06;73.48
66880;BME280;53789;51.392;10.234;2023-05-02T00:45:03;98251.44;;;9.05;74.01
66880;BME280;53789;51.392;10.234;2023-05-02T00:45:23;98255.81;;;9.06;73.48
66880;BME280;53789;51.392;10.234;2023-05-02T00:45:44;98248.69;;;9.05;73.41
66880;BME280;53789;51.392;10.234;2023-05-02T00:46:05;98251.44;;;9.05;73.20
66880;BME280;53789;51.392;10.234;2023-05-02T00:46:26;98257.22;;;9.03;74.25
66880;BME280;53789;51.392;10.234;2023-05-02T00:46:46;98253.66;;;9.02;73.62
66880;BME280;53789;51.392;10.234;2023-05-02T00:47:06;98251.72;;;9.03;74.51
66880;BME280;53789;51.392;10.234;2023-05-02T00:47:27;98246.53;;;9.01;74.36
66880;BME280;53789;51.392;10.234;2023-05-02T00:47:49;98246.53;;;9.01;73.45
66880;BME280;53789;51.392;10.234;2023-05-02T00:48:09;98250.09;;;9.02;73.34
66880;BME280;53789;51.392;10.234;2023-05-02T00:48:30;98252.03;;;9.01;73.79
66880;BME280;53789;51.392;10.234;2023-05-02T00:48:51;98252.03;;;9.01;74.29
66880;BME280;53789;51.392;10.234;2023-05-02T00:49:11;98249.28;;;9.01;74.15
66880;BME280;53789;51.392;10.234;2023-05-02T00:49:31;98249.28;;;9.01;73.01
66880;BME280;53789;51.392;10.234;2023-05-02T00:49:52;98242.69;;;9.02;73.91
66880;BME280;53789;51.392;10.234;2023-05-02T00:50:12;98248.69;;;9.05;74.13
66880;BME280;53789;51.392;10.234;2023-05-02T00:50:38;98247.59;;;9.06;73.35
66880;BME280;53789;51.392;10.234;2023-05-02T00:51:02;98245.94;;;9.05;74.49
66880;BME280;53789;51.392;10.234;2023-05-02T00:51:23;98243.75;;;9.07;74.60
66880;BME280;53789;51.392;10.234;2023-05-02T00:51:43;98246.19;;;9.08;74.80
66880;BME280;53789;51.392;10.234;2023-05-02T00:52:03;98243.44;;;9.08;73.80
66880;BME280;53789;51.392;10.234;2023-05-02T00:52:24;98247.00;;;9.09;74.72
66880;BME280;53789;51.392;10.234;2023-05-02T00:52:45;98253.28;;;9.09;74.29
66880;BME280;53789;51.392;10.234;2023-05-02T00:53:06;98244.75;;;9.11;74.27
66880;BME280;53789;51.392;10.234;2023-05-02T00:53:27;98249.44;;;9.10;74.15
66880;BME280;53789;51.392;10.234;2023-05-02T00:53:48;98246.41;;;9.12;74.00
66880;BME280;53789;51.392;10.234;2023-05-02T00:54:08;98251.88;;;9.12;74.79
66880;BME280;53789;51.392;10.234;2023-05-02T00:54:30;98250.78;;;9.13;74.33
66880;BME280;53789;51.392;10.234;2023-05-02T00:54:50;98248.84;;;9.13;74.88
66880;BME280;53789;51.392;10.234;2023-05-02T00:55:11;98251.59;;;9.13;75.02
66880;BME280;53789;51.392;10.234;2023-05-02T00:55:32;98252.38;;;9.14;74.79
66880;BME280;53789;51.392;10.234;2023-05-02T00:55:53;98249.94;;;9.12;75.17
66880;BME280;53789;51.392;10.234;2023-05-02T00:56:13;98249.66;;;9.14;74.21
66880;BME280;53789;51.392;10.234;2023-05-02T00:56:33;98248.84;;;9.13;74.64
66880;BME280;53789;51.392;10.234;2023-05-02T00:56:54;98247.75;;;9.14;74.87
66880;BME280;53789;51.392;10.234;2023-05-02T00:57:14;98252.38;;;9.14;75.33
66880;BME280;53789;51.392;10.234;2023-05-02T00:57:34;98248.84;;;9.13;75.38
66880;BME280;53789;51.392;10.234;2023-05-02T00:57:55;98249.34;;;9.15;74.05
66880;BME280;53789;51.392;10.234;2023-05-02T00:58:17;98248.53;;;9.15;74.16
66880;BME280;53789;51.392;10.234;2023-05-02T00:58:39;98248.53;;;9.15;75.34
66880;BME280;53789;51.392;10.234;2023-05-02T00:59:00;98245.00;;;9.14;74.46
66880;BME280;53789;51.392;10.234;2023-05-02T00:59:20;98239.50;;;9.14;74.70
66880;BME280;53789;51.392;10.234;2023-05-02T00:59:41;98247.75;;;9.14;73.88
66880;BME280;53789;51.392;10.234;2023-05-02T01:00:01;98241.41;;;9.14;74.11
66880;BME280;53789;51.392;10.234;2023-05-02T01:00:35;98241.41;;;9.14;74.74
66880;BME280;53789;51.392;10.234;2023-05-02T01:01:13;98247.19;;;9.12;75.05
66880;BME280;53789;51.392;10.234;2023-05-02T01:03:01;98243.66;;;9.12;74.41
66880;BME280;53789;51.392;10.234;2023-05-02T01:04:29;98247.19;;;9.12;74.42
66880;BME280;53789;51.392;10.234;2023-05-02T01:05:10;98239.25;;;9.11;74.30
66880;BME280;53789;51.392;10.234;2023-05-02T01:05:44;98238.47;;;9.10;74.94
66880;BME280;53789;51.392;10.234;2023-05-02T01:06:27;98245.88;;;9.10;74.35
66880;BME280;53789;51.392;10.234;2023-05-02T01:08:51;98242.59;;;9.08;74.07
66880;BME280;53789;51.392;10.234;2023-05-02T01:10:41;98249.72;;;9.09;74.97
66880;BME280;53789;51.392;10.234;2023-05-02T01:11:16;98243.75;;;9.07;75.21
66880;BME280;53789;51.392;10.234;2023-05-02T01:12:56;98242.91;;;9.06;74.32
66880;BME280;53789;51.392;10.234;2023-05-02T01:13:09;98246.19;;;9.08;74.87
66880;BME280;53789;51.392;10.234;2023-05-02T01:13:33;98243.75;;;9.07;75.35
66880;BME280;53789;51.392;10.234;2023-05-02T01:13:58;98232.75;;;9.07;75.14
66880;BME280;53789;51.392;10.234;2023-05-02T01:14:22;98248.94;;;9.08;74.67
66880;BME280;53789;51.392;10.234;2023-05-02T01:14:51;98247.00;;;9.09;75.53
66880;BME280;53789;51.392;10.234;2023-05-02T01:15:18;98246.47;;;9.07;75.26
66880;BME280;53789;51.392;10.234;2023-05-02T01:15:41;98247.28;;;9.07;74.71
66880;BME280;53789;51.392;10.234;2023-05-02T01:16:04;98244.53;;;9.07;75.54
66880;BME280;53789;51.392;10.234;2023-05-02T01:16:27;98248.38;;;9.06;74.69
66880;BME280;53789;51.392;10.234;2023-05-02T01:16:49;98237.41;;;9.06;75.39
66880;BME280;53789;51.392;10.234;2023-05-02T01:17:13;98248.38;;;9.06;75.47
66880;BME280;53789;51.392;10.234;2023-05-02T01:17:36;98247.59;;;9.06;75.03
66880;BME280;53789;51.392;10.234;2023-05-02T01:18:00;98247.03;;;9.03;74.76
66880;BME280;53789;51.392;10.234;2023-05-02T01:18:24;98244.31;;;9.03;75.49
66880;BME280;53789;51.392;10.234;2023-05-02T01:18:47;98244.31;;;9.03;74.84
66880;BME280;53789;51.392;10.234;2023-05-02T01:19:21;98242.69;;;9.02;75.53
66880;BME280;53789;51.392;10.234;2023-05-02T01:19:51;98241.84;;;9.02;75.60
66880;BME280;53789;51.392;10.234;2023-05-02T01:20:17;98240.25;;;9.01;75.25
66880;BME280;53789;51.392;10.234;2023-05-02T01:20:43;98248.19;;;9.02;75.23
66880;BME280;53789;51.392;10.234;2023-05-02T01:21:07;98247.34;;;9.02;74.80
66880;BME280;53789;51.392;10.234;2023-05-02T01:21:28;98252.03;;;9.01;75.67
66880;BME280;53789;51.392;10.234;2023-05-02T01:21:51;98246.53;;;9.01;74.89
66880;BME280;53789;51.392;10.234;2023-05-02T01:22:15;98252.81;;;9.02;75.90
66880;BME280;53789;51.392;10.234;2023-05-02T01:22:37;98252.03;;;9.01;75.05
66880;BME280;53789;51.392;10.234;2023-05-02T01:23:05;98246.53;;;9.01;74.82
66880;BME280;53789;51.392;10.234;2023-05-02T01:23:51;98245.72;;;9.01;75.71
66880;BME280;53789;51.392;10.234;2023-05-02T01:24:25;98248.47;;;9.01;75.65
66880;BME280;53789;51.392;10.234;2023-05-02T01:25:34;98250.38;;;9.00;75.28
66880;BME280;53789;51.392;10.234;2023-05-02T01:26:15;98253.97;;;9.01;74.80
66880;BME280;53789;51.392;10.234;2023-05-02T01:27:00;98262.19;;;9.01;75.83
66880;BME280;53789;51.392;10.234;2023-05-02T01:28:57;98258.09;;;8.98;75.43
66880;BME280;53789;51.392;10.234;2023-05-02T01:29:19;98252.63;;;8.98;75.76
66880;BME280;53789;51.392;10.234;2023-05-02T01:29:44;98260.03;;;8.98;75.62
66880;BME280;53789;51.392;10.234;2023-05-02T01:30:07;98257.31;;;8.98;74.99
66880;BME280;53789;51.392;10.234;2023-05-02T01:30:32;98260.03;;;8.98;75.91
66880;BME280;53789;51.392;10.234;2023-05-02T01:30:55;98261.94;;;8.97;76.12
66880;BME280;53789;51.392;10.234;2023-05-02T01:31:17;98265.81;;;8.96;75.26
66880;BME280;53789;51.392;10.234;2023-05-02T01:31:40;98268.88;;;8.95;75.66
66880;BME280;53789;51.392;10.234;2023-05-02T01:32:03;98262.53;;;8.94;75.98
66880;BME280;53789;51.392;10.234;2023-05-02T01:32:27;98264.78;;;8.92;75.76
66880;BME280;53789;51.392;10.234;2023-05-02T01:32:51;98260.41;;;8.91;75.88
66880;BME280;53789;51.392;10.234;2023-05-02T01:33:15;98261.50;;;8.90;76.23
66880;BME280;53789;51.392;10.234;2023-05-02T01:33:38;98267.81;;;8.91;76.06
66880;BME280;53789;51.392;10.234;2023-05-02T01:34:00;98265.06;;;8.91;75.72
66880;BME280;53789;51.392;10.234;2023-05-02T01:34:22;98268.13;;;8.89;75.59
66880;BME280;53789;51.392;10.234;2023-05-02T01:34:46;98273.59;;;8.89;75.62
66880;BME280;53789;51.392;10.234;2023-05-02T01:35:08;98262.94;;;8.88;75.57
66880;BME280;53789;51.392;10.234;2023-05-02T01:35:32;98265.13;;;8.85;76.36
66880;BME280;53789;51.392;10.234;2023-05-02T01:35:56;98267.88;;;8.85;76.62
66880;BME280;53789;51.392;10.234;2023-05-02T01:36:18;98267.88;;;8.85;76.07
66880;BME280;53789;51.392;10.234;2023-05-02T01:36:46;98264.63;;;8.83;76.11
66880;BME280;53789;51.392;10.234;2023-05-02T01:37:10;98265.72;;;8.82;76.53
66880;BME280;53789;51.392;10.234;2023-05-02T01:37:32;98267.94;;;8.80;76.36
66880;BME280;53789;51.392;10.234;2023-05-02T01:37:55;98262.75;;;8.79;76.03
66880;BME280;53789;51.392;10.234;2023-05-02T01:38:18;98258.38;;;8.78;76.34
66880;BME280;53789;51.392;10.234;2023-05-02T01:38:42;98263.06;;;8.77;76.23
66880;BME280;53789;51.392;10.234;2023-05-02T01:39:05;98260.31;;;8.77;77.02
66880;BME280;53789;51.392;10.234;2023-05-02T01:39:29;98261.41;;;8.76;77.32
66880;BME280;53789;51.392;10.234;2023-05-02T01:39:51;98260.59;;;8.76;77.28
66880;BME280;53789;51.392;10.234;2023-05-02T01:40:17;98266.09;;;8.76;77.72
66880;BME280;53789;51.392;10.234;2023-05-02T01:40:40;98263.34;;;8.76;77.29
66880;BME280;53789;51.392;10.234;2023-05-02T01:41:06;98258.97;;;8.75;77.01
66880;BME280;53789;51.392;10.234;2023-05-02T01:41:30;98265.25;;;8.75;76.62
66880;BME280;53789;51.392;10.234;2023-05-02T01:41:54;98260.91;;;8.74;77.61
66880;BME280;53789;51.392;10.234;2023-05-02T01:42:18;98257.31;;;8.74;77.30
66880;BME280;53789;51.392;10.234;2023-05-02T01:42:41;98262.81;;;8.74;76.85
66880;BME280;53789;51.392;10.234;2023-05-02T01:43:04;98263.09;;;8.72;78.07
66880;BME280;53789;51.392;10.234;2023-05-02T01:43:26;98272.16;;;8.73;77.29
66880;BME280;53789;51.392;10.234;2023-05-02T01:43:47;98263.94;;;8.73;78.10
66880;BME280;53789;51.392;10.234;2023-05-02T01:44:10;98269.44;;;8.73;77.62
66880;BME280;53789;51.392;10.234;2023-05-02T01:44:34;98267.78;;;8.72;77.77
66880;BME280;53789;51.392;10.234;2023-05-02T01:44:58;98260.66;;;8.71;77.44
66880;BME280;53789;51.392;10.234;2023-05-02T01:45:21;98267.78;;;8.72;77.82
66880;BME280;53789;51.392;10.234;2023-05-02T01:45:46;98269.97;;;8.70;77.14
66880;BME280;53789;51.392;10.234;2023-05-02T01:46:10;98263.41;;;8.71;77.14
66880;BME280;53789;51.392;10.234;2023-05-02T01:46:36;98269.97;;;8.70;78.23
66880;BME280;53789;51.392;10.234;2023-05-02T01:47:01;98271.91;;;8.69;77.68
66880;BME280;53789;51.392;10.234;2023-05-02T01:47:25;98267.25;;;8.70;77.40
66880;BME280;53789;51.392;10.234;2023-05-02T01:47:47;98274.66;;;8.69;77.94
66880;BME280;53789;51.392;10.234;2023-05-02T01:48:09;98274.97;;;8.67;78.11
66880;BME280;53789;51.392;10.234;2023-05-02T01:48:31;98274.97;;;8.67;77.58
66880;BME280;53789;51.392;10.234;2023-05-02T01:48:54;98273.31;;;8.66;77.55
66880;BME280;53789;51.392;10.234;2023-05-02T01:49:18;98273.31;;;8.66;77.68
66880;BME280;53789;51.392;10.234;2023-05-02T01:49:41;98273.31;;;8.66;78.45
66880;BME280;53789;51.392;10.234;2023-05-02T01:50:05;98273.31;;;8.66;77.66
66880;BME280;53789;51.392;10.234;2023-05-02T01:50:27;98270.88;;;8.65;78.45
66880;BME280;53789;51.392;10.234;2023-05-02T01:50:50;98275.53;;;8.64;78.02
66880;BME280;53789;51.392;10.234;2023-05-02T01:51:14;98268.13;;;8.65;78.79
66880;BME280;53789;51.392;10.234;2023-05-02T01:51:43;98282.66;;;8.65;77.58
66880;BME280;53789;51.392;10.234;2023-05-02T01:52:07;98276.06;;;8.66;77.32
66880;BME280;53789;51.392;10.234;2023-05-02T01:52:30;98279.94;;;8.65;78.61
66880;BME280;53789;51.392;10.234;2023-05-02T01:52:52;98282.66;;;8.65;78.57
66880;BME280;53789;51.392;10.234;2023-05-02T01:53:13;98272.00;;;8.64;78.54
66880;BME280;53789;51.392;10.234;2023-05-02T01:53:34;98278.28;;;8.64;78.19
66880;BME280;53789;51.392;10.234;2023-05-02T01:53:58;98277.47;;;8.64;77.77
66880;BME280;53789;51.392;10.234;2023-05-02T01:54:22;98279.38;;;8.63;78.11
66880;BME280;53789;51.392;10.234;2023-05-02T01:54:43;98278.28;;;8.64;78.63
66880;BME280;53789;51.392;10.234;2023-05-02T01:55:07;98278.28;;;8.64;78.01
66880;BME280;53789;51.392;10.234;2023-05-02T01:55:28;98279.94;;;8.65;77.75
66880;BME280;53789;51.392;10.234;2023-05-02T01:55:50;98281.84;;;8.65;78.68
66880;BME280;53789;51.392;10.234;2023-05-02T01:56:15;98277.19;;;8.65;78.88
66880;BME280;53789;51.392;10.234;2023-05-02T01:56:38;98279.94;;;8.65;77.91
66880;BME280;53789;51.392;10.234;2023-05-02T01:57:01;98268.97;;;8.65;78.10
66880;BME280;53789;51.392;10.234;2023-05-02T01:57:24;98276.06;;;8.66;77.75
66880;BME280;53789;51.392;10.234;2023-05-02T01:57:47;98268.66;;;8.67;78.09
66880;BME280;53789;51.392;10.234;2023-05-02T01:58:11;98276.06;;;8.66;77.56
66880;BME280;53789;51.392;10.234;2023-05-02T01:58:35;98276.06;;;8.66;77.80
66880;BME280;53789;51.392;10.234;2023-05-02T01:58:58;98272.50;;;8.66;78.87
66880;BME280;53789;51.392;10.234;2023-05-02T01:59:22;98275.25;;;8.66;78.63
66880;BME280;53789;51.392;10.234;2023-05-02T01:59:45;98277.69;;;8.67;77.64
66880;BME280;53789;51.392;10.234;2023-05-02T02:00:09;98274.16;;;8.67;78.92
66880;BME280;53789;51.392;10.234;2023-05-02T02:00:32;98274.97;;;8.67;77.74
66880;BME280;53789;51.392;10.234;2023-05-02T02:00:55;98281.25;;;8.68;78.64
66880;BME280;53789;51.392;10.234;2023-05-02T02:01:19;98281.78;;;8.70;77.84
66880;BME280;53789;51.392;10.234;2023-05-02T02:01:42;98282.59;;;8.71;77.81
66880;BME280;53789;51.392;10.234;2023-05-02T02:02:05;98289.72;;;8.72;78.38
66880;BME280;53789;51.392;10.234;2023-05-02T02:02:28;98287.78;;;8.72;77.86
66880;BME280;53789;51.392;10.234;2023-05-02T02:02:50;98285.88;;;8.73;78.36
66880;BME280;53789;51.392;10.234;2023-05-02T02:03:13;98290.22;;;8.74;78.82
66880;BME280;53789;51.392;10.234;2023-05-02T02:03:35;98283.13;;;8.73;78.17
66880;BME280;53789;51.392;10.234;2023-05-02T02:03:57;98284.75;;;8.74;78.62
66880;BME280;53789;51.392;10.234;2023-05-02T02:04:20;98280.09;;;8.74;78.44
66880;BME280;53789;51.392;10.234;2023-05-02T02:04:41;98284.75;;;8.74;77.71
66880;BME280;53789;51.392;10.234;2023-05-02T02:05:04;98290.22;;;8.74;77.44
66880;BME280;53789;51.392;10.234;2023-05-02T02:05:27;98277.66;;;8.73;77.63
66880;BME280;53789;51.392;10.234;2023-05-02T02:05:50;98294.09;;;8.73;78.13
66880;BME280;53789;51.392;10.234;2023-05-02T02:06:14;98288.63;;;8.73;77.90
66880;BME280;53789;51.392;10.234;2023-05-02T02:06:36;98298.47;;;8.74;78.30
66880;BME280;53789;51.392;10.234;2023-05-02T02:07:06;98286.69;;;8.73;78.44
66880;BME280;53789;51.392;10.234;2023-05-02T02:07:27;98288.63;;;8.73;77.98
66880;BME280;53789;51.392;10.234;2023-05-02T02:07:48;98282.31;;;8.72;78.79
66880;BME280;53789;51.392;10.234;2023-05-02T02:08:08;98290.53;;;8.72;78.54
66880;BME280;53789;51.392;10.234;2023-05-02T02:08:29;98285.03;;;8.72;79.11